Wetterstation Vordersexau
Wetterdaten: November 2018
Datum Temp. A. Feuchte A. Luftdruck Regen Wind Richtung Taupunkt Windchill Windben
01.11.2018 7,6 C 80 % 1010,5 hPa 4,1 l/m 2,3 km/h O 4,3 C 7,1 C 1,3 km/h
02.11.2018 7,5 C 81 % 1019,4 hPa 0,5 l/m 0,3 km/h O-SO 4,5 C 7,5 C 0,2 km/h
03.11.2018 8,6 C 80 % 1021,6 hPa 0,0 l/m 1,5 km/h SW 5,4 C 8,4 C 0,8 km/h
04.11.2018 7,8 C 83 % 1012,5 hPa 0,0 l/m 0,0 km/h W-SW 5,0 C 7,8 C 0,0 km/h
05.11.2018 7,1 C 78 % 1006,5 hPa 0,0 l/m 0,0 km/h W-SW 3,5 C 7,1 C 0,0 km/h
06.11.2018 6,5 C 70 % 1006,1 hPa 0,0 l/m 0,2 km/h W 1,3 C 6,5 C 0,1 km/h
07.11.2018 9,7 C 80 % 1009,9 hPa 0,0 l/m 2,3 km/h O 6,4 C 9,1 C 1,3 km/h
08.11.2018 10,7 C 81 % 1017,0 hPa 0,5 l/m 1,8 km/h O-NO 7,6 C 10,2 C 1,0 km/h
09.11.2018 9,3 C 81 % 1012,2 hPa 0,0 l/m 0,0 km/h O 6,2 C 9,3 C 0,0 km/h
10.11.2018 9,9 C 82 % 1006,7 hPa 3,6 l/m 0,0 km/h SO 6,9 C 9,9 C 0,0 km/h
11.11.2018 11,7 C 77 % 1010,2 hPa 4,1 l/m 2,7 km/h NO 7,8 C 11,0 C 1,5 km/h
12.11.2018 13,1 C 77 % 1014,3 hPa 0,0 l/m 2,7 km/h NO 9,1 C 12,7 C 1,5 km/h
13.11.2018 10,7 C 83 % 1024,8 hPa 4,1 l/m 2,8 km/h S-SW 7,9 C 10,0 C 1,6 km/h
14.11.2018 4,7 C 80 % 1025,9 hPa 0,0 l/m 0,6 km/h NW 1,5 C 4,5 C 0,3 km/h
15.11.2018 5,0 C 74 % 1023,6 hPa 0,5 l/m 1,6 km/h SO 0,7 C 4,4 C 0,9 km/h
16.11.2018 4,7 C 83 % 1023,4 hPa 0,0 l/m 0,2 km/h S 2,0 C 4,7 C 0,1 km/h
17.11.2018 2,1 C 80 % 1021,5 hPa 0,0 l/m 1,9 km/h N-NW -1,1 C 1,5 C 1,0 km/h
18.11.2018 1,6 C 80 % 1018,1 hPa 0,0 l/m 0,0 km/h SO -1,5 C 1,6 C 0,0 km/h
19.11.2018 1,3 C 73 % 1007,2 hPa 0,0 l/m 0,0 km/h N-NO -3,0 C 1,3 C 0,0 km/h
20.11.2018 -0,4 C 81 % 1002,8 hPa 0,0 l/m 0,0 km/h O-NO -3,2 C -0,4 C 0,0 km/h
21.11.2018 -0,6 C 85 % 1011,2 hPa 0,0 l/m 0,0 km/h W -2,8 C -0,6 C 0,0 km/h
22.11.2018 1,2 C 83 % 1016,1 hPa 0,0 l/m 0,0 km/h W -1,3 C 1,2 C 0,0 km/h
23.11.2018 -0,2 C 81 % 1013,9 hPa 0,5 l/m 0,0 km/h W-SW -3,0 C -0,2 C 0,0 km/h
24.11.2018 5,5 C 76 % 1010,3 hPa 2,1 l/m 6,4 km/h S-SW 1,7 C 3,6 C 3,6 km/h
25.11.2018 3,5 C 84 % 1004,9 hPa 0,0 l/m 0,0 km/h NO 1,0 C 3,5 C 0,0 km/h
26.11.2018 4,2 C 84 % 1004,6 hPa 1,0 l/m 0,0 km/h S 1,8 C 4,2 C 0,0 km/h
27.11.2018 3,5 C 79 % 1015,7 hPa 3,1 l/m 0,0 km/h S-SO 0,1 C 3,5 C 0,0 km/h
28.11.2018 3,3 C 78 % 1019,8 hPa 0,5 l/m 0,0 km/h SO -0,2 C 3,3 C 0,0 km/h
29.11.2018 4,3 C 80 % 1015,3 hPa 0,0 l/m 0,0 km/h O-NO 1,1 C 4,3 C 0,0 km/h
30.11.2018 5,8 C 80 % 1013,2 hPa 4,1 l/m 0,5 km/h SO 2,6 C 5,8 C 0,3 km/h
Min-Datum 20.11.18 19.11.18 20.11.18 13 Tage 01.11.18 - 20.11.18 20.11.18 01.11.18
Min-Zeit 07:53 12:53 03:53 - 00:53 - 06:53 07:53 00:53
Minimum -3,7 C 58 % 1001,2 hPa - 0,0 km/h - -5,7 C -3,7 C 0,0 km/h
Max-Datum 12.11.18 20.11.18 13.11.18 01.11.18 24.11.18 - 12.11.18 12.11.18 24.11.18
Max-Zeit 16:53 07:53 18:53 19:53 10:53 - 13:53 15:53 10:53
Maximum 19,0 C 86 % 1028,3 hPa 4,1 l/m 35,0 km/h
S-SW
- 13,3 C 17,5 C 19,4 km/h
S-SW
Durchschnitt 5,7 C 80 % 1014,0 hPa #29,0 l/m 0,9 km/h SO 2,4 C 5,4 C 0,5 km/h

Durchschnitt Minimum Temp.2,4 C
Durchschnitt Maximum Temp.9,4 C
www.sexauwetter.de